sensor_id;sensor_type;location;lat;lon;timestamp;pressure;altitude;pressure_sealevel;temperature;humidity
77112;BME280;66064;50.226;14.344;2023-04-23T00:01:06;98859.59;;;10.90;74.42
77112;BME280;66064;50.226;14.344;2023-04-23T00:03:37;98868.47;;;10.92;74.64
77112;BME280;66064;50.226;14.344;2023-04-23T00:06:05;98862.25;;;11.02;74.32
77112;BME280;66064;50.226;14.344;2023-04-23T00:08:33;98859.59;;;10.99;74.32
77112;BME280;66064;50.226;14.344;2023-04-23T00:10:59;98856.06;;;10.97;74.31
77112;BME280;66064;50.226;14.344;2023-04-23T00:13:25;98846.34;;;10.87;74.65
77112;BME280;66064;50.226;14.344;2023-04-23T00:15:51;98842.75;;;10.91;74.95
77112;BME280;66064;50.226;14.344;2023-04-23T00:18:17;98844.56;;;10.80;75.37
77112;BME280;66064;50.226;14.344;2023-04-23T00:20:44;98841.94;;;10.69;75.48
77112;BME280;66064;50.226;14.344;2023-04-23T00:23:10;98832.16;;;10.68;75.56
77112;BME280;66064;50.226;14.344;2023-04-23T00:25:36;98835.72;;;10.63;76.38
77112;BME280;66064;50.226;14.344;2023-04-23T00:28:02;98831.28;;;10.56;75.86
77112;BME280;66064;50.226;14.344;2023-04-23T00:30:28;98828.66;;;10.49;76.28
77112;BME280;66064;50.226;14.344;2023-04-23T00:32:54;98822.44;;;10.46;75.77
77112;BME280;66064;50.226;14.344;2023-04-23T00:35:20;98817.13;;;10.40;77.43
77112;BME280;66064;50.226;14.344;2023-04-23T00:37:46;98817.13;;;10.34;77.92
77112;BME280;66064;50.226;14.344;2023-04-23T00:40:12;98816.25;;;10.24;77.44
77112;BME280;66064;50.226;14.344;2023-04-23T00:42:39;98823.31;;;10.16;77.15
77112;BME280;66064;50.226;14.344;2023-04-23T00:45:08;98830.41;;;10.17;77.53
77112;BME280;66064;50.226;14.344;2023-04-23T00:47:34;98828.63;;;10.13;77.84
77112;BME280;66064;50.226;14.344;2023-04-23T00:50:01;98830.41;;;10.02;78.31
77112;BME280;66064;50.226;14.344;2023-04-23T00:52:28;98826.81;;;9.92;78.04
77112;BME280;66064;50.226;14.344;2023-04-23T00:54:54;98825.94;;;9.82;78.39
77112;BME280;66064;50.226;14.344;2023-04-23T00:57:22;98827.69;;;9.77;78.46
77112;BME280;66064;50.226;14.344;2023-04-23T00:59:48;98824.16;;;9.71;78.71
77112;BME280;66064;50.226;14.344;2023-04-23T01:02:16;98828.56;;;9.67;79.04
77112;BME280;66064;50.226;14.344;2023-04-23T01:04:42;98826.78;;;9.63;79.12
77112;BME280;66064;50.226;14.344;2023-04-23T01:07:11;98825.03;;;9.56;79.58
77112;BME280;66064;50.226;14.344;2023-04-23T01:09:37;98828.56;;;9.57;80.02
77112;BME280;66064;50.226;14.344;2023-04-23T01:12:05;98834.75;;;9.54;79.56
77112;BME280;66064;50.226;14.344;2023-04-23T01:14:32;98832.03;;;9.45;79.64
77112;BME280;66064;50.226;14.344;2023-04-23T01:16:58;98841.78;;;9.41;79.73
77112;BME280;66064;50.226;14.344;2023-04-23T01:19:24;98832.88;;;9.30;80.41
77112;BME280;66064;50.226;14.344;2023-04-23T01:21:50;98842.66;;;9.39;80.65
77112;BME280;66064;50.226;14.344;2023-04-23T01:24:16;98846.22;;;9.41;80.46
77112;BME280;66064;50.226;14.344;2023-04-23T01:26:42;98849.81;;;9.55;79.79
77112;BME280;66064;50.226;14.344;2023-04-23T01:29:09;98848.03;;;9.54;80.19
77112;BME280;66064;50.226;14.344;2023-04-23T01:31:36;98847.13;;;9.52;79.87
77112;BME280;66064;50.226;14.344;2023-04-23T01:34:02;98845.31;;;9.45;79.71
77112;BME280;66064;50.226;14.344;2023-04-23T01:36:29;98847.13;;;9.54;79.82
77112;BME280;66064;50.226;14.344;2023-04-23T01:38:55;98846.25;;;9.50;80.35
77112;BME280;66064;50.226;14.344;2023-04-23T01:41:22;98843.56;;;9.47;80.60
77112;BME280;66064;50.226;14.344;2023-04-23T01:43:48;98844.44;;;9.40;79.82
77112;BME280;66064;50.226;14.344;2023-04-23T01:46:14;98837.34;;;9.36;80.67
77112;BME280;66064;50.226;14.344;2023-04-23T01:48:40;98839.97;;;9.30;80.64
77112;BME280;66064;50.226;14.344;2023-04-23T01:51:07;98844.38;;;9.25;80.73
77112;BME280;66064;50.226;14.344;2023-04-23T01:53:33;98834.59;;;9.16;80.64
77112;BME280;66064;50.226;14.344;2023-04-23T01:56:00;98833.72;;;9.16;81.70
77112;BME280;66064;50.226;14.344;2023-04-23T01:58:26;98835.47;;;9.07;81.29
77112;BME280;66064;50.226;14.344;2023-04-23T02:00:52;98831.00;;;9.02;82.21
77112;BME280;66064;50.226;14.344;2023-04-23T02:03:18;98845.13;;;8.98;82.30
77112;BME280;66064;50.226;14.344;2023-04-23T02:05:45;98837.16;;;8.90;82.48
77112;BME280;66064;50.226;14.344;2023-04-23T02:08:11;98839.81;;;8.90;82.38
77112;BME280;66064;50.226;14.344;2023-04-23T02:10:37;98831.88;;;8.99;82.64
77112;BME280;66064;50.226;14.344;2023-04-23T02:13:03;98845.13;;;8.98;83.31
77112;BME280;66064;50.226;14.344;2023-04-23T02:15:29;98844.22;;;8.91;82.11
77112;BME280;66064;50.226;14.344;2023-04-23T02:17:56;98850.44;;;8.92;83.87
77112;BME280;66064;50.226;14.344;2023-04-23T02:20:23;98841.53;;;8.87;83.68
77112;BME280;66064;50.226;14.344;2023-04-23T02:22:49;98840.63;;;8.83;84.48
77112;BME280;66064;50.226;14.344;2023-04-23T02:25:17;98843.25;;;8.78;84.08
77112;BME280;66064;50.226;14.344;2023-04-23T02:27:43;98834.38;;;8.72;84.52
77112;BME280;66064;50.226;14.344;2023-04-23T02:30:10;98841.50;;;8.76;84.39
77112;BME280;66064;50.226;14.344;2023-04-23T02:32:36;98842.38;;;8.81;84.46
77112;BME280;66064;50.226;14.344;2023-04-23T02:35:04;98842.44;;;8.87;84.26
77112;BME280;66064;50.226;14.344;2023-04-23T02:37:34;98837.97;;;8.83;83.76
77112;BME280;66064;50.226;14.344;2023-04-23T02:40:02;98841.56;;;8.88;84.01
77112;BME280;66064;50.226;14.344;2023-04-23T02:42:30;98838.88;;;8.85;83.19
77112;BME280;66064;50.226;14.344;2023-04-23T02:44:56;98856.66;;;9.01;83.02
77112;BME280;66064;50.226;14.344;2023-04-23T02:47:22;98854.91;;;9.03;82.86
77112;BME280;66064;50.226;14.344;2023-04-23T02:49:48;98858.41;;;8.99;83.56
77112;BME280;66064;50.226;14.344;2023-04-23T02:52:14;98857.50;;;8.94;84.26
77112;BME280;66064;50.226;14.344;2023-04-23T02:54:40;98852.19;;;8.91;83.56
77112;BME280;66064;50.226;14.344;2023-04-23T02:57:06;98854.84;;;8.90;82.76
77112;BME280;66064;50.226;14.344;2023-04-23T02:59:32;98853.91;;;8.86;83.87
77112;BME280;66064;50.226;14.344;2023-04-23T03:01:58;98839.81;;;8.90;83.36
77112;BME280;66064;50.226;14.344;2023-04-23T03:04:24;98849.56;;;9.00;83.04
77112;BME280;66064;50.226;14.344;2023-04-23T03:06:50;98845.19;;;9.05;82.91
77112;BME280;66064;50.226;14.344;2023-04-23T03:09:16;98846.09;;;9.07;84.29
77112;BME280;66064;50.226;14.344;2023-04-23T03:11:42;98862.00;;;9.10;83.47
77112;BME280;66064;50.226;14.344;2023-04-23T03:14:08;98850.50;;;9.13;83.81
77112;BME280;66064;50.226;14.344;2023-04-23T03:16:34;98854.06;;;9.13;84.19
77112;BME280;66064;50.226;14.344;2023-04-23T03:19:01;98856.72;;;9.13;85.42
77112;BME280;66064;50.226;14.344;2023-04-23T03:21:27;98848.72;;;9.06;85.28
77112;BME280;66064;50.226;14.344;2023-04-23T03:23:53;98856.72;;;9.13;85.01
77112;BME280;66064;50.226;14.344;2023-04-23T03:26:19;98848.75;;;9.17;84.64
77112;BME280;66064;50.226;14.344;2023-04-23T03:28:45;98854.09;;;9.21;84.42
77112;BME280;66064;50.226;14.344;2023-04-23T03:31:11;98849.69;;;9.28;84.20
77112;BME280;66064;50.226;14.344;2023-04-23T03:33:37;98848.81;;;9.29;84.04
77112;BME280;66064;50.226;14.344;2023-04-23T03:36:03;98842.59;;;9.27;83.85
77112;BME280;66064;50.226;14.344;2023-04-23T03:38:30;98845.25;;;9.27;84.13
77112;BME280;66064;50.226;14.344;2023-04-23T03:40:56;98837.34;;;9.36;83.77
77112;BME280;66064;50.226;14.344;2023-04-23T03:43:22;98846.22;;;9.41;84.07
77112;BME280;66064;50.226;14.344;2023-04-23T03:45:48;98818.75;;;9.43;84.66
77112;BME280;66064;50.226;14.344;2023-04-23T03:48:14;98821.41;;;9.45;83.93
77112;BME280;66064;50.226;14.344;2023-04-23T03:50:40;98813.47;;;9.45;84.46
77112;BME280;66064;50.226;14.344;2023-04-23T03:53:07;98791.28;;;9.31;86.36
77112;BME280;66064;50.226;14.344;2023-04-23T03:55:34;98759.38;;;9.06;89.57
77112;BME280;66064;50.226;14.344;2023-04-23T03:58:01;98744.31;;;9.11;89.98
77112;BME280;66064;50.226;14.344;2023-04-23T04:00:28;98750.56;;;9.23;90.60
77112;BME280;66064;50.226;14.344;2023-04-23T04:02:54;98766.50;;;9.29;92.80
77112;BME280;66064;50.226;14.344;2023-04-23T04:05:21;98767.41;;;9.31;93.44
77112;BME280;66064;50.226;14.344;2023-04-23T04:07:47;98751.50;;;9.41;91.83
77112;BME280;66064;50.226;14.344;2023-04-23T04:10:13;98819.72;;;9.71;91.74
77112;BME280;66064;50.226;14.344;2023-04-23T04:12:40;98822.44;;;10.25;84.74
77112;BME280;66064;50.226;14.344;2023-04-23T04:15:07;98793.19;;;10.54;83.70
77112;BME280;66064;50.226;14.344;2023-04-23T04:17:33;98807.31;;;10.74;84.14
77112;BME280;66064;50.226;14.344;2023-04-23T04:19:59;98796.59;;;10.92;82.19
77112;BME280;66064;50.226;14.344;2023-04-23T04:22:25;98792.22;;;10.76;85.91
77112;BME280;66064;50.226;14.344;2023-04-23T04:24:51;98802.91;;;10.70;86.70
77112;BME280;66064;50.226;14.344;2023-04-23T04:27:17;98799.34;;;10.60;87.44
77112;BME280;66064;50.226;14.344;2023-04-23T04:29:43;98803.78;;;10.57;87.83
77112;BME280;66064;50.226;14.344;2023-04-23T04:32:10;98816.25;;;10.51;90.05
77112;BME280;66064;50.226;14.344;2023-04-23T04:34:38;98812.69;;;10.43;89.24
77112;BME280;66064;50.226;14.344;2023-04-23T04:37:04;98822.44;;;10.40;88.94
77112;BME280;66064;50.226;14.344;2023-04-23T04:39:30;98817.16;;;10.38;87.95
77112;BME280;66064;50.226;14.344;2023-04-23T04:41:56;98819.78;;;10.43;87.58
77112;BME280;66064;50.226;14.344;2023-04-23T04:44:24;98822.44;;;10.49;87.83
77112;BME280;66064;50.226;14.344;2023-04-23T04:46:50;98824.22;;;10.53;88.66
77112;BME280;66064;50.226;14.344;2023-04-23T04:49:17;98832.19;;;10.55;88.20
77112;BME280;66064;50.226;14.344;2023-04-23T04:51:44;98843.69;;;10.63;88.42
77112;BME280;66064;50.226;14.344;2023-04-23T04:54:10;98835.72;;;10.69;88.12
77112;BME280;66064;50.226;14.344;2023-04-23T04:56:36;98842.78;;;10.76;87.85
77112;BME280;66064;50.226;14.344;2023-04-23T04:59:02;98830.41;;;10.70;87.68
77112;BME280;66064;50.226;14.344;2023-04-23T05:01:29;98832.13;;;10.85;87.28
77112;BME280;66064;50.226;14.344;2023-04-23T05:03:55;98829.44;;;10.91;85.25
77112;BME280;66064;50.226;14.344;2023-04-23T05:06:22;98847.13;;;11.09;86.29
77112;BME280;66064;50.226;14.344;2023-04-23T05:08:48;98846.22;;;11.19;85.88
77112;BME280;66064;50.226;14.344;2023-04-23T05:11:18;98846.19;;;11.31;84.08
77112;BME280;66064;50.226;14.344;2023-04-23T05:13:45;98844.31;;;11.50;83.54
77112;BME280;66064;50.226;14.344;2023-04-23T05:16:12;98842.41;;;11.73;82.23
77112;BME280;66064;50.226;14.344;2023-04-23T05:18:39;98837.00;;;11.90;81.92
77112;BME280;66064;50.226;14.344;2023-04-23T05:21:06;98841.44;;;11.89;82.63
77112;BME280;66064;50.226;14.344;2023-04-23T05:23:34;98844.06;;;11.99;80.86
77112;BME280;66064;50.226;14.344;2023-04-23T05:26:00;98838.63;;;12.14;79.71
77112;BME280;66064;50.226;14.344;2023-04-23T05:28:29;98847.44;;;12.22;79.86
77112;BME280;66064;50.226;14.344;2023-04-23T05:30:55;98844.63;;;12.37;79.41
77112;BME280;66064;50.226;14.344;2023-04-23T05:33:21;98845.41;;;12.51;78.59
77112;BME280;66064;50.226;14.344;2023-04-23T05:35:48;98848.03;;;12.57;78.34
77112;BME280;66064;50.226;14.344;2023-04-23T05:38:14;98842.53;;;12.73;77.91
77112;BME280;66064;50.226;14.344;2023-04-23T05:40:40;98840.94;;;12.52;79.34
77112;BME280;66064;50.226;14.344;2023-04-23T05:43:13;98842.69;;;12.59;74.78
77112;BME280;66064;50.226;14.344;2023-04-23T05:45:39;98847.94;;;12.67;76.02
77112;BME280;66064;50.226;14.344;2023-04-23T05:48:05;98841.69;;;12.69;75.77
77112;BME280;66064;50.226;14.344;2023-04-23T05:50:31;98844.25;;;12.81;74.86
77112;BME280;66064;50.226;14.344;2023-04-23T05:52:57;98848.38;;;13.10;74.40
77112;BME280;66064;50.226;14.344;2023-04-23T05:55:23;98848.97;;;13.38;72.50
77112;BME280;66064;50.226;14.344;2023-04-23T05:57:49;98848.72;;;13.57;72.87
77112;BME280;66064;50.226;14.344;2023-04-23T06:00:16;98842.28;;;13.72;72.08
77112;BME280;66064;50.226;14.344;2023-04-23T06:02:42;98841.38;;;13.73;73.14
77112;BME280;66064;50.226;14.344;2023-04-23T06:05:08;98840.94;;;13.38;73.21
77112;BME280;66064;50.226;14.344;2023-04-23T06:07:34;98840.06;;;13.39;72.98
77112;BME280;66064;50.226;14.344;2023-04-23T06:10:03;98840.91;;;13.41;73.38
77112;BME280;66064;50.226;14.344;2023-04-23T06:12:35;98839.66;;;13.68;72.69
77112;BME280;66064;50.226;14.344;2023-04-23T06:15:06;98838.66;;;13.78;72.82
77112;BME280;66064;50.226;14.344;2023-04-23T06:17:32;98839.41;;;13.86;72.72
77112;BME280;66064;50.226;14.344;2023-04-23T06:19:58;98842.84;;;13.95;72.99
77112;BME280;66064;50.226;14.344;2023-04-23T06:22:24;98837.00;;;14.27;72.19
77112;BME280;66064;50.226;14.344;2023-04-23T06:24:50;98838.16;;;14.11;71.99
77112;BME280;66064;50.226;14.344;2023-04-23T06:27:16;98830.91;;;14.18;71.78
77112;BME280;66064;50.226;14.344;2023-04-23T06:29:43;98829.75;;;14.32;71.82
77112;BME280;66064;50.226;14.344;2023-04-23T06:32:09;98821.75;;;14.31;71.30
77112;BME280;66064;50.226;14.344;2023-04-23T06:34:35;98832.63;;;14.22;71.56
77112;BME280;66064;50.226;14.344;2023-04-23T06:37:01;98838.91;;;14.19;71.03
77112;BME280;66064;50.226;14.344;2023-04-23T06:39:27;98833.59;;;14.16;72.43
77112;BME280;66064;50.226;14.344;2023-04-23T06:41:53;98837.06;;;14.23;73.44
77112;BME280;66064;50.226;14.344;2023-04-23T06:44:19;98838.88;;;14.22;72.31
77112;BME280;66064;50.226;14.344;2023-04-23T06:46:45;98839.78;;;14.20;74.47
77112;BME280;66064;50.226;14.344;2023-04-23T06:49:11;98841.78;;;14.07;73.76
77112;BME280;66064;50.226;14.344;2023-04-23T06:51:37;98848.00;;;14.09;74.49
77112;BME280;66064;50.226;14.344;2023-04-23T06:54:03;98842.63;;;14.11;74.84
77112;BME280;66064;50.226;14.344;2023-04-23T06:56:29;98847.06;;;14.12;74.21
77112;BME280;66064;50.226;14.344;2023-04-23T06:58:55;98837.13;;;14.18;74.62
77112;BME280;66064;50.226;14.344;2023-04-23T07:01:21;98836.94;;;14.29;75.12
77112;BME280;66064;50.226;14.344;2023-04-23T07:03:47;98835.97;;;14.36;74.41
77112;BME280;66064;50.226;14.344;2023-04-23T07:06:16;98832.16;;;14.51;72.71
77112;BME280;66064;50.226;14.344;2023-04-23T07:08:42;98830.25;;;14.60;73.11
77112;BME280;66064;50.226;14.344;2023-04-23T07:11:09;98829.16;;;14.70;72.65
77112;BME280;66064;50.226;14.344;2023-04-23T07:13:36;98842.25;;;14.86;72.58
77112;BME280;66064;50.226;14.344;2023-04-23T07:16:02;98828.38;;;15.10;72.50
77112;BME280;66064;50.226;14.344;2023-04-23T07:18:28;98826.13;;;15.33;72.92
77112;BME280;66064;50.226;14.344;2023-04-23T07:20:54;98829.69;;;15.35;73.28
77112;BME280;66064;50.226;14.344;2023-04-23T07:23:21;98831.41;;;15.81;72.13
77112;BME280;66064;50.226;14.344;2023-04-23T07:25:46;98823.41;;;16.17;70.75
77112;BME280;66064;50.226;14.344;2023-04-23T07:28:13;98823.84;;;16.35;68.35
77112;BME280;66064;50.226;14.344;2023-04-23T07:30:38;98818.69;;;16.63;67.37
77112;BME280;66064;50.226;14.344;2023-04-23T07:33:05;98823.97;;;16.68;66.62
77112;BME280;66064;50.226;14.344;2023-04-23T07:35:30;98819.66;;;16.59;68.26
77112;BME280;66064;50.226;14.344;2023-04-23T07:37:57;98818.66;;;16.65;67.20
77112;BME280;66064;50.226;14.344;2023-04-23T07:40:23;98826.13;;;16.52;66.63
77112;BME280;66064;50.226;14.344;2023-04-23T07:42:50;98829.44;;;16.63;66.73
77112;BME280;66064;50.226;14.344;2023-04-23T07:45:17;98826.50;;;16.37;66.03
77112;BME280;66064;50.226;14.344;2023-04-23T07:47:44;98824.56;;;16.42;66.42
77112;BME280;66064;50.226;14.344;2023-04-23T07:50:13;98825.00;;;16.61;67.09
77112;BME280;66064;50.226;14.344;2023-04-23T07:52:39;98817.81;;;16.97;66.88
77112;BME280;66064;50.226;14.344;2023-04-23T07:55:06;98817.81;;;16.97;66.64
77112;BME280;66064;50.226;14.344;2023-04-23T07:57:34;98834.25;;;16.85;67.10
77112;BME280;66064;50.226;14.344;2023-04-23T08:00:00;98839.78;;;16.78;67.80
77112;BME280;66064;50.226;14.344;2023-04-23T08:02:27;98838.63;;;16.53;68.73
77112;BME280;66064;50.226;14.344;2023-04-23T08:04:53;98836.44;;;16.33;69.34
77112;BME280;66064;50.226;14.344;2023-04-23T08:07:19;98854.22;;;16.00;70.65
77112;BME280;66064;50.226;14.344;2023-04-23T08:09:45;98849.25;;;15.82;72.44
77112;BME280;66064;50.226;14.344;2023-04-23T08:12:11;98856.53;;;15.77;73.55
77112;BME280;66064;50.226;14.344;2023-04-23T08:14:37;98859.13;;;15.82;73.99
77112;BME280;66064;50.226;14.344;2023-04-23T08:17:03;98862.81;;;15.76;73.42
77112;BME280;66064;50.226;14.344;2023-04-23T08:19:29;98870.25;;;16.03;72.27
77112;BME280;66064;50.226;14.344;2023-04-23T08:21:58;98854.69;;;16.19;71.04
77112;BME280;66064;50.226;14.344;2023-04-23T08:24:24;98855.84;;;16.44;70.31
77112;BME280;66064;50.226;14.344;2023-04-23T08:26:52;98852.63;;;16.67;70.91
77112;BME280;66064;50.226;14.344;2023-04-23T08:29:17;98849.50;;;16.84;69.75
77112;BME280;66064;50.226;14.344;2023-04-23T08:31:43;98862.44;;;17.04;68.53
77112;BME280;66064;50.226;14.344;2023-04-23T08:34:09;98852.06;;;16.89;69.18
77112;BME280;66064;50.226;14.344;2023-04-23T08:36:36;98856.63;;;16.87;69.35
77112;BME280;66064;50.226;14.344;2023-04-23T08:39:03;98865.31;;;16.96;68.76
77112;BME280;66064;50.226;14.344;2023-04-23T08:41:39;98865.41;;;16.92;69.49
77112;BME280;66064;50.226;14.344;2023-04-23T08:44:17;98869.78;;;16.96;69.04
77112;BME280;66064;50.226;14.344;2023-04-23T08:46:44;98869.88;;;16.93;68.39
77112;BME280;66064;50.226;14.344;2023-04-23T08:49:13;98863.78;;;16.86;67.80
77112;BME280;66064;50.226;14.344;2023-04-23T08:51:49;98870.00;;;16.88;67.51
77112;BME280;66064;50.226;14.344;2023-04-23T08:54:27;98866.03;;;17.03;67.27
77112;BME280;66064;50.226;14.344;2023-04-23T08:56:55;98871.97;;;16.82;69.29
77112;BME280;66064;50.226;14.344;2023-04-23T08:59:25;98874.88;;;16.72;69.72
77112;BME280;66064;50.226;14.344;2023-04-23T09:01:52;98864.81;;;16.81;68.61
77112;BME280;66064;50.226;14.344;2023-04-23T09:04:19;98869.38;;;16.77;67.97
77112;BME280;66064;50.226;14.344;2023-04-23T09:06:45;98874.03;;;16.72;67.29
77112;BME280;66064;50.226;14.344;2023-04-23T09:09:15;98877.81;;;16.97;65.47
77112;BME280;66064;50.226;14.344;2023-04-23T09:11:43;98881.28;;;17.02;61.34
77112;BME280;66064;50.226;14.344;2023-04-23T09:14:11;98874.59;;;17.17;63.25
77112;BME280;66064;50.226;14.344;2023-04-23T09:16:38;98886.78;;;16.98;61.08
77112;BME280;66064;50.226;14.344;2023-04-23T09:19:09;98891.94;;;16.71;62.74
77112;BME280;66064;50.226;14.344;2023-04-23T09:21:38;98900.22;;;16.61;59.23
77112;BME280;66064;50.226;14.344;2023-04-23T09:24:07;98903.84;;;16.58;60.02
77112;BME280;66064;50.226;14.344;2023-04-23T09:26:43;98898.34;;;16.66;61.39
77112;BME280;66064;50.226;14.344;2023-04-23T09:29:19;98904.59;;;16.66;63.40
77112;BME280;66064;50.226;14.344;2023-04-23T09:31:47;98904.34;;;16.75;59.63
77112;BME280;66064;50.226;14.344;2023-04-23T09:34:18;98894.63;;;16.71;59.36
77112;BME280;66064;50.226;14.344;2023-04-23T09:36:46;98897.13;;;16.77;60.31
77112;BME280;66064;50.226;14.344;2023-04-23T09:39:15;98901.72;;;17.08;61.45
77112;BME280;66064;50.226;14.344;2023-04-23T09:41:41;98883.81;;;17.07;59.67
77112;BME280;66064;50.226;14.344;2023-04-23T09:44:07;98886.22;;;17.19;60.94
77112;BME280;66064;50.226;14.344;2023-04-23T09:46:39;98884.56;;;17.13;60.26
77112;BME280;66064;50.226;14.344;2023-04-23T09:49:06;98893.34;;;17.53;60.92
77112;BME280;66064;50.226;14.344;2023-04-23T09:51:37;98891.34;;;17.90;62.17
77112;BME280;66064;50.226;14.344;2023-04-23T09:54:15;98885.16;;;18.17;59.77
77112;BME280;66064;50.226;14.344;2023-04-23T09:56:48;98887.78;;;17.90;59.42
77112;BME280;66064;50.226;14.344;2023-04-23T09:59:26;98889.38;;;17.97;61.15
77112;BME280;66064;50.226;14.344;2023-04-23T10:01:54;98891.66;;;17.81;61.30
77112;BME280;66064;50.226;14.344;2023-04-23T10:04:22;98893.84;;;17.34;61.09
77112;BME280;66064;50.226;14.344;2023-04-23T10:07:03;98895.78;;;17.29;62.97
77112;BME280;66064;50.226;14.344;2023-04-23T10:09:33;98901.53;;;17.16;64.67
77112;BME280;66064;50.226;14.344;2023-04-23T10:12:01;98892.72;;;17.09;63.36
77112;BME280;66064;50.226;14.344;2023-04-23T10:14:28;98898.38;;;17.32;61.35
77112;BME280;66064;50.226;14.344;2023-04-23T10:16:59;98903.22;;;17.52;63.63
77112;BME280;66064;50.226;14.344;2023-04-23T10:19:26;98895.03;;;17.23;60.85
77112;BME280;66064;50.226;14.344;2023-04-23T10:21:56;98900.53;;;16.86;61.47
77112;BME280;66064;50.226;14.344;2023-04-23T10:24:25;98904.66;;;16.99;62.72
77112;BME280;66064;50.226;14.344;2023-04-23T10:26:58;98895.94;;;16.89;61.42
77112;BME280;66064;50.226;14.344;2023-04-23T10:29:26;98902.63;;;16.73;64.65
77112;BME280;66064;50.226;14.344;2023-04-23T10:31:59;98888.75;;;16.90;62.92
77112;BME280;66064;50.226;14.344;2023-04-23T10:34:27;98895.66;;;16.66;64.03
77112;BME280;66064;50.226;14.344;2023-04-23T10:36:54;98896.47;;;16.69;64.22
77112;BME280;66064;50.226;14.344;2023-04-23T10:39:21;98900.41;;;16.53;64.12
77112;BME280;66064;50.226;14.344;2023-04-23T10:41:49;98895.03;;;16.53;62.88
77112;BME280;66064;50.226;14.344;2023-04-23T10:44:15;98897.38;;;16.68;65.00
77112;BME280;66064;50.226;14.344;2023-04-23T10:46:52;98891.09;;;16.69;64.23
77112;BME280;66064;50.226;14.344;2023-04-23T10:49:24;98896.28;;;16.75;64.32
77112;BME280;66064;50.226;14.344;2023-04-23T10:52:14;98884.19;;;16.93;63.98
77112;BME280;66064;50.226;14.344;2023-04-23T10:54:42;98883.13;;;17.00;62.36
77112;BME280;66064;50.226;14.344;2023-04-23T10:57:09;98880.63;;;16.93;63.66
77112;BME280;66064;50.226;14.344;2023-04-23T10:59:40;98869.53;;;17.37;64.06
77112;BME280;66064;50.226;14.344;2023-04-23T11:02:16;98867.31;;;17.53;62.72
77112;BME280;66064;50.226;14.344;2023-04-23T11:04:46;98869.22;;;17.80;60.98
77112;BME280;66064;50.226;14.344;2023-04-23T11:07:19;98862.03;;;17.50;61.87
77112;BME280;66064;50.226;14.344;2023-04-23T11:09:46;98869.00;;;17.56;62.87
77112;BME280;66064;50.226;14.344;2023-04-23T11:14:52;98864.97;;;17.41;59.96
77112;BME280;66064;50.226;14.344;2023-04-23T11:17:23;98856.66;;;17.18;58.93
77112;BME280;66064;50.226;14.344;2023-04-23T11:22:48;98864.00;;;17.11;60.78
77112;BME280;66064;50.226;14.344;2023-04-23T11:27:42;98856.00;;;17.40;62.52
77112;BME280;66064;50.226;14.344;2023-04-23T11:30:13;98853.91;;;17.82;61.85
77112;BME280;66064;50.226;14.344;2023-04-23T11:32:40;98863.13;;;18.33;60.38
77112;BME280;66064;50.226;14.344;2023-04-23T11:35:07;98867.84;;;18.25;58.10
77112;BME280;66064;50.226;14.344;2023-04-23T11:37:40;98881.97;;;18.33;59.09
77112;BME280;66064;50.226;14.344;2023-04-23T11:40:08;98868.28;;;18.39;61.17
77112;BME280;66064;50.226;14.344;2023-04-23T11:42:55;98872.47;;;18.49;60.46
77112;BME280;66064;50.226;14.344;2023-04-23T11:45:24;98880.56;;;18.19;59.89
77112;BME280;66064;50.226;14.344;2023-04-23T11:47:53;98870.41;;;18.01;61.64
77112;BME280;66064;50.226;14.344;2023-04-23T11:50:24;98867.53;;;17.45;61.37
77112;BME280;66064;50.226;14.344;2023-04-23T11:52:51;98872.19;;;17.71;61.95
77112;BME280;66064;50.226;14.344;2023-04-23T11:55:18;98875.25;;;17.58;63.38
77112;BME280;66064;50.226;14.344;2023-04-23T11:57:47;98879.69;;;17.59;61.73
77112;BME280;66064;50.226;14.344;2023-04-23T12:00:18;98878.34;;;17.11;62.41
77112;BME280;66064;50.226;14.344;2023-04-23T12:03:01;98884.66;;;17.41;61.63
77112;BME280;66064;50.226;14.344;2023-04-23T12:05:29;98871.56;;;17.29;63.27
77112;BME280;66064;50.226;14.344;2023-04-23T12:08:10;98880.25;;;17.71;61.77
77112;BME280;66064;50.226;14.344;2023-04-23T12:10:52;98880.28;;;17.70;60.34
77112;BME280;66064;50.226;14.344;2023-04-23T12:13:22;98872.41;;;17.31;61.91
77112;BME280;66064;50.226;14.344;2023-04-23T12:15:53;98882.16;;;17.68;61.88
77112;BME280;66064;50.226;14.344;2023-04-23T12:18:27;98884.75;;;17.71;61.11
77112;BME280;66064;50.226;14.344;2023-04-23T12:20:53;98887.28;;;17.77;60.82
77112;BME280;66064;50.226;14.344;2023-04-23T12:23:25;98877.31;;;17.80;60.77
77112;BME280;66064;50.226;14.344;2023-04-23T12:25:53;98869.66;;;18.52;59.28
77112;BME280;66064;50.226;14.344;2023-04-23T12:28:23;98875.00;;;18.26;59.55
77112;BME280;66064;50.226;14.344;2023-04-23T12:30:49;98876.47;;;17.78;60.03
77112;BME280;66064;50.226;14.344;2023-04-23T12:33:16;98874.25;;;18.21;58.73
77112;BME280;66064;50.226;14.344;2023-04-23T12:35:51;98874.16;;;18.24;58.39
77112;BME280;66064;50.226;14.344;2023-04-23T12:38:25;98869.97;;;18.15;59.08
77112;BME280;66064;50.226;14.344;2023-04-23T12:40:52;98875.63;;;18.63;57.83
77112;BME280;66064;50.226;14.344;2023-04-23T12:43:19;98868.34;;;18.37;58.38
77112;BME280;66064;50.226;14.344;2023-04-23T12:45:45;98874.38;;;17.88;58.08
77112;BME280;66064;50.226;14.344;2023-04-23T12:48:11;98867.03;;;17.93;59.56
77112;BME280;66064;50.226;14.344;2023-04-23T12:50:38;98871.38;;;18.27;58.70
77112;BME280;66064;50.226;14.344;2023-04-23T12:53:04;98862.81;;;18.42;59.09
77112;BME280;66064;50.226;14.344;2023-04-23T12:55:30;98869.13;;;18.13;57.58
77112;BME280;66064;50.226;14.344;2023-04-23T12:57:57;98862.75;;;18.71;57.05
77112;BME280;66064;50.226;14.344;2023-04-23T13:00:24;98868.50;;;18.03;57.93
77112;BME280;66064;50.226;14.344;2023-04-23T13:02:50;98864.75;;;18.09;57.10